Bemidji, Minnesota
Current Conditions -  °F | °C
As of 9:53 PM on Wednesday 22 Oct 2014 (Local Time) from KBJI Reporting Station
Drizzle Drizzle  
Wind Chill: 53°   Ceiling: 2900
Heat Index: 53°   Visibility: 10mi
Dew Point: 47°   Wind: 12mph
Humidity: 79%   Direction: 170°S
Pressure: 29.91"   Gusts: NA
Location:  47.47°N, 94.88°W
Report Text: KBJI 230253Z AUTO 17010KT 10SM -DZ OVC029 12/08 A2991 RMK AO2 T01180082
Loading
Personal Weather Stations






























Interactive Weather Map
Tropical Storm Tracking
New forecast layout! Learn more

10-Day Weather Forecast

Advertisements
Track Severe Weather on mobile